Time,TemperatureF,DewpointF,PressureIn,WindDirection,WindDirectionDegrees,WindSpeedMPH,WindSpeedGustMPH,Humidity,HourlyPrecipIn,Conditions,Clouds,dailyrainin,SoftwareType,DateUTC
2013-07-02 00:02:00,67.0,54.0,29.99,NNW,346,2.0,9.0,64,0.00,,,0.00,weatherlink.com 1.10,2013-07-02 05:02:00,
2013-07-02 00:17:00,67.1,54.0,29.99,NNW,347,4.0,12.0,63,0.00,,,0.00,weatherlink.com 1.10,2013-07-02 05:17:00,
2013-07-02 00:32:00,66.7,54.0,29.98,North,355,4.0,8.0,64,0.00,,,0.00,weatherlink.com 1.10,2013-07-02 05:32:00,
2013-07-02 00:47:00,66.0,54.0,29.98,NNE,12,3.0,7.0,65,0.00,,,0.00,weatherlink.com 1.10,2013-07-02 05:47:00,
2013-07-02 01:02:00,65.7,54.0,29.98,NNE,17,3.0,9.0,66,0.00,,,0.00,weatherlink.com 1.10,2013-07-02 06:02:00,
2013-07-02 01:17:00,65.4,53.0,29.98,NNE,19,8.0,11.0,65,0.00,,,0.00,weatherlink.com 1.10,2013-07-02 06:17:00,
2013-07-02 01:32:00,65.2,53.0,29.98,NNE,20,5.0,10.0,64,0.00,,,0.00,weatherlink.com 1.10,2013-07-02 06:32:00,
2013-07-02 01:47:00,65.0,52.0,29.98,North,360,4.0,9.0,64,0.00,,,0.00,weatherlink.com 1.10,2013-07-02 06:47:00,
2013-07-02 02:02:00,64.7,53.0,29.98,North,355,5.0,10.0,65,0.00,,,0.00,weatherlink.com 1.10,2013-07-02 07:02:00,
2013-07-02 02:17:00,64.5,52.0,29.97,NNE,15,2.0,8.0,65,0.00,,,0.00,weatherlink.com 1.10,2013-07-02 07:17:00,
2013-07-02 02:32:00,64.2,52.0,29.97,North,355,3.0,6.0,65,0.00,,,0.00,weatherlink.com 1.10,2013-07-02 07:32:00,
2013-07-02 02:47:00,63.9,52.0,29.97,NNW,329,5.0,8.0,66,0.00,,,0.00,weatherlink.com 1.10,2013-07-02 07:47:00,
2013-07-02 03:02:00,63.8,53.0,29.97,NNW,347,5.0,8.0,67,0.00,,,0.00,weatherlink.com 1.10,2013-07-02 08:02:00,
2013-07-02 03:17:00,63.6,52.0,29.97,NNW,344,4.0,8.0,67,0.00,,,0.00,weatherlink.com 1.10,2013-07-02 08:17:00,
2013-07-02 03:32:00,63.5,52.0,29.97,NNW,340,4.0,8.0,67,0.00,,,0.00,weatherlink.com 1.10,2013-07-02 08:32:00,
2013-07-02 03:47:00,63.3,53.0,29.97,North,5,4.0,9.0,68,0.00,,,0.00,weatherlink.com 1.10,2013-07-02 08:47:00,
2013-07-02 04:02:00,63.1,52.0,29.97,NNE,24,4.0,9.0,68,0.00,,,0.00,weatherlink.com 1.10,2013-07-02 09:02:00,
2013-07-02 04:17:00,63.0,53.0,29.98,NNW,340,4.0,9.0,69,0.00,,,0.00,weatherlink.com 1.10,2013-07-02 09:17:00,
2013-07-02 04:32:00,62.6,53.0,29.98,NNW,348,6.0,6.0,70,0.00,,,0.00,weatherlink.com 1.10,2013-07-02 09:32:00,
2013-07-02 04:47:00,62.2,52.0,29.98,NNW,339,2.0,8.0,70,0.00,,,0.00,weatherlink.com 1.10,2013-07-02 09:47:00,
2013-07-02 05:02:00,61.7,53.0,29.99,North,5,3.0,7.0,72,0.00,,,0.00,weatherlink.com 1.10,2013-07-02 10:02:00,
2013-07-02 05:17:00,60.6,53.0,29.99,North,355,1.0,5.0,75,0.00,,,0.00,weatherlink.com 1.10,2013-07-02 10:17:00,
2013-07-02 05:32:00,59.7,52.0,29.99,NNW,336,3.0,5.0,77,0.00,,,0.00,weatherlink.com 1.10,2013-07-02 10:32:00,
2013-07-02 05:47:00,59.3,52.0,30.00,NNW,337,3.0,6.0,78,0.00,,,0.00,weatherlink.com 1.10,2013-07-02 10:47:00,
2013-07-02 06:02:00,59.2,53.0,29.99,NNW,348,3.0,6.0,79,0.00,,,0.00,weatherlink.com 1.10,2013-07-02 11:02:00,
2013-07-02 06:18:00,58.6,53.0,30.00,NNW,347,4.0,5.0,81,0.00,,,0.00,weatherlink.com 1.10,2013-07-02 11:18:00,
2013-07-02 06:33:00,58.4,53.0,30.00,NW,314,4.0,7.0,83,0.00,,,0.00,weatherlink.com 1.10,2013-07-02 11:33:00,
2013-07-02 06:48:00,59.0,54.0,30.00,North,355,3.0,6.0,82,0.00,,,0.00,weatherlink.com 1.10,2013-07-02 11:48:00,
2013-07-02 07:03:00,60.0,55.0,30.01,NNW,348,1.0,6.0,82,0.00,,,0.00,weatherlink.com 1.10,2013-07-02 12:03:00,
2013-07-02 07:18:00,61.2,55.0,30.01,NNW,338,6.0,7.0,79,0.00,,,0.00,weatherlink.com 1.10,2013-07-02 12:18:00,
2013-07-02 07:33:00,61.9,55.0,30.02,NNW,334,4.0,10.0,78,0.00,,,0.00,weatherlink.com 1.10,2013-07-02 12:33:00,
2013-07-02 07:48:00,62.4,55.0,30.02,North,355,2.0,9.0,76,0.00,,,0.00,weatherlink.com 1.10,2013-07-02 12:48:00,
2013-07-02 08:03:00,62.8,55.0,30.02,North,5,4.0,8.0,76,0.00,,,0.00,weatherlink.com 1.10,2013-07-02 13:03:00,
2013-07-02 08:18:00,63.1,55.0,30.02,NNE,13,6.0,10.0,76,0.00,,,0.00,weatherlink.com 1.10,2013-07-02 13:18:00,
2013-07-02 08:33:00,63.5,56.0,30.03,NNW,342,6.0,7.0,76,0.00,,,0.00,weatherlink.com 1.10,2013-07-02 13:33:00,
2013-07-02 08:48:00,65.0,57.0,30.03,NE,34,2.0,9.0,75,0.00,,,0.00,weatherlink.com 1.10,2013-07-02 13:48:00,
2013-07-02 09:03:00,66.9,57.0,30.03,NNE,16,7.0,11.0,70,0.00,,,0.00,weatherlink.com 1.10,2013-07-02 14:03:00,
2013-07-02 09:18:00,67.2,57.0,30.03,NNW,331,3.0,11.0,70,0.00,,,0.00,weatherlink.com 1.10,2013-07-02 14:18:00,
2013-07-02 09:33:00,68.6,58.0,30.03,NNE,18,5.0,10.0,70,0.00,,,0.00,weatherlink.com 1.10,2013-07-02 14:33:00,
2013-07-02 09:48:00,69.1,57.0,30.03,North,349,6.0,12.0,66,0.00,,,0.00,weatherlink.com 1.10,2013-07-02 14:48:00,
2013-07-02 10:03:00,69.3,58.0,30.03,North,5,5.0,8.0,67,0.00,,,0.00,weatherlink.com 1.10,2013-07-02 15:03:00,
2013-07-02 10:18:00,70.8,58.0,30.03,North,360,9.0,11.0,65,0.00,,,0.00,weatherlink.com 1.10,2013-07-02 15:18:00,
2013-07-02 10:33:00,70.7,58.0,30.03,North,360,5.0,12.0,64,0.00,,,0.00,weatherlink.com 1.10,2013-07-02 15:33:00,
2013-07-02 10:48:00,71.8,57.0,30.03,NNW,329,6.0,12.0,61,0.00,,,0.00,weatherlink.com 1.10,2013-07-02 15:48:00,
2013-07-02 11:03:00,71.8,57.0,30.03,NW,318,4.0,15.0,60,0.00,,,0.00,weatherlink.com 1.10,2013-07-02 16:03:00,
2013-07-02 11:33:00,73.1,57.0,30.03,NNE,22,6.0,13.0,58,0.00,,,0.00,weatherlink.com 1.10,2013-07-02 16:33:00,
2013-07-02 11:48:00,74.4,58.0,30.03,NNE,31,9.0,14.0,57,0.00,,,0.00,weatherlink.com 1.10,2013-07-02 16:48:00,
2013-07-02 12:03:00,74.7,57.0,30.03,North,11,7.0,14.0,54,0.00,,,0.00,weatherlink.com 1.10,2013-07-02 17:03:00,
2013-07-02 12:18:00,74.6,57.0,30.03,NNE,17,4.0,14.0,54,0.00,,,0.00,weatherlink.com 1.10,2013-07-02 17:18:00,
2013-07-02 12:33:00,73.7,55.0,30.02,NW,315,5.0,15.0,53,0.00,,,0.00,weatherlink.com 1.10,2013-07-02 17:33:00,
2013-07-02 12:48:00,75.7,57.0,30.02,NW,309,5.0,14.0,53,0.00,,,0.00,weatherlink.com 1.10,2013-07-02 17:48:00,
2013-07-02 13:04:00,77.2,56.0,30.02,North,355,6.0,19.0,49,0.00,,,0.00,weatherlink.com 1.10,2013-07-02 18:04:00,
2013-07-02 13:19:00,76.5,56.0,30.02,North,355,4.0,18.0,49,0.00,,,0.00,weatherlink.com 1.10,2013-07-02 18:19:00,
2013-07-02 13:34:00,76.9,56.0,30.02,North,360,9.0,14.0,48,0.00,,,0.00,weatherlink.com 1.10,2013-07-02 18:34:00,
2013-07-02 13:49:00,77.2,56.0,30.02,NE,37,8.0,14.0,49,0.00,,,0.00,weatherlink.com 1.10,2013-07-02 18:49:00,
2013-07-02 14:04:00,76.9,55.0,30.01,NNE,31,13.0,16.0,47,0.00,,,0.00,weatherlink.com 1.10,2013-07-02 19:04:00,
2013-07-02 14:19:00,76.9,56.0,30.01,NNE,22,11.0,19.0,48,0.00,,,0.00,weatherlink.com 1.10,2013-07-02 19:19:00,
2013-07-02 14:34:00,77.1,57.0,30.01,NNW,343,11.0,17.0,50,0.00,,,0.00,weatherlink.com 1.10,2013-07-02 19:34:00,
2013-07-02 14:49:00,76.7,55.0,30.01,NNE,26,11.0,15.0,47,0.00,,,0.00,weatherlink.com 1.10,2013-07-02 19:49:00,
2013-07-02 15:04:00,75.9,55.0,30.01,NNE,15,10.0,13.0,49,0.00,,,0.00,weatherlink.com 1.10,2013-07-02 20:04:00,
2013-07-02 15:19:00,75.8,56.0,30.01,North,10,9.0,11.0,50,0.00,,,0.00,weatherlink.com 1.10,2013-07-02 20:19:00,
2013-07-02 15:34:00,76.3,56.0,30.00,North,360,4.0,11.0,49,0.00,,,0.00,weatherlink.com 1.10,2013-07-02 20:34:00,
2013-07-02 15:49:00,76.4,57.0,30.00,NNE,26,7.0,10.0,52,0.00,,,0.00,weatherlink.com 1.10,2013-07-02 20:49:00,
2013-07-02 16:04:00,77.1,56.0,30.00,NNW,345,5.0,13.0,48,0.00,,,0.00,weatherlink.com 1.10,2013-07-02 21:04:00,
2013-07-02 16:19:00,76.5,59.0,30.00,North,355,2.0,9.0,54,0.00,,,0.00,weatherlink.com 1.10,2013-07-02 21:19:00,
2013-07-02 16:34:00,77.7,57.0,30.00,NE,49,11.0,12.0,49,0.00,,,0.00,weatherlink.com 1.10,2013-07-02 21:34:00,
2013-07-02 16:49:00,77.3,57.0,30.00,NNE,28,9.0,11.0,50,0.00,,,0.00,weatherlink.com 1.10,2013-07-02 21:49:00,
2013-07-02 17:04:00,76.8,56.0,30.00,ENE,71,5.0,13.0,49,0.00,,,0.00,weatherlink.com 1.10,2013-07-02 22:04:00,
2013-07-02 17:19:00,76.6,57.0,30.00,NE,51,7.0,9.0,50,0.00,,,0.00,weatherlink.com 1.10,2013-07-02 22:19:00,
2013-07-02 17:34:00,77.1,58.0,30.00,NNE,26,6.0,9.0,51,0.00,,,0.00,weatherlink.com 1.10,2013-07-02 22:34:00,
2013-07-02 17:49:00,77.3,58.0,29.99,NE,45,6.0,11.0,51,0.00,,,0.00,weatherlink.com 1.10,2013-07-02 22:49:00,
2013-07-02 18:04:00,76.9,57.0,29.99,ENE,63,5.0,6.0,51,0.00,,,0.00,weatherlink.com 1.10,2013-07-02 23:04:00,
2013-07-02 18:19:00,77.0,58.0,29.99,NE,47,3.0,7.0,52,0.00,,,0.00,weatherlink.com 1.10,2013-07-02 23:19:00,
2013-07-02 18:34:00,76.1,58.0,29.99,ENE,59,2.0,6.0,53,0.00,,,0.00,weatherlink.com 1.10,2013-07-02 23:34:00,
2013-07-02 18:49:00,75.1,59.0,29.99,East,92,5.0,6.0,57,0.00,,,0.00,weatherlink.com 1.10,2013-07-02 23:49:00,
2013-07-02 19:04:00,74.2,59.0,30.00,East,86,2.0,5.0,60,0.00,,,0.00,weatherlink.com 1.10,2013-07-03 00:04:00,
2013-07-02 19:19:00,73.6,59.0,30.00,East,90,3.0,5.0,61,0.00,,,0.00,weatherlink.com 1.10,2013-07-03 00:19:00,
2013-07-02 19:34:00,73.3,59.0,30.00,SE,135,3.0,6.0,61,0.00,,,0.00,weatherlink.com 1.10,2013-07-03 00:34:00,
2013-07-02 19:49:00,73.0,59.0,30.00,SE,135,1.0,4.0,62,0.00,,,0.00,weatherlink.com 1.10,2013-07-03 00:49:00,
2013-07-02 20:04:00,72.3,60.0,30.00,SSE,165,2.0,3.0,65,0.00,,,0.00,weatherlink.com 1.10,2013-07-03 01:04:00,
2013-07-02 20:19:00,71.7,59.0,30.00,SSE,165,0.0,2.0,65,0.00,,,0.00,weatherlink.com 1.10,2013-07-03 01:19:00,
2013-07-02 20:34:00,70.8,59.0,30.00,SSE,165,1.0,2.0,67,0.00,,,0.00,weatherlink.com 1.10,2013-07-03 01:34:00,
2013-07-02 20:49:00,69.5,59.0,30.00,SSE,165,0.0,1.0,70,0.00,,,0.00,weatherlink.com 1.10,2013-07-03 01:49:00,
2013-07-02 21:04:00,68.0,59.0,30.01,SSE,165,0.0,0.0,73,0.00,,,0.00,weatherlink.com 1.10,2013-07-03 02:04:00,
2013-07-02 21:34:00,65.8,58.0,30.01,SSE,165,1.0,2.0,77,0.00,,,0.00,weatherlink.com 1.10,2013-07-03 02:34:00,
2013-07-02 22:04:00,65.6,59.0,30.02,SSE,165,1.0,2.0,78,0.00,,,0.00,weatherlink.com 1.10,2013-07-03 03:04:00,
2013-07-02 22:19:00,65.0,59.0,30.02,SSE,165,1.0,2.0,80,0.00,,,0.00,weatherlink.com 1.10,2013-07-03 03:19:00,
2013-07-02 22:34:00,64.3,58.0,30.02,SSE,165,0.0,4.0,81,0.00,,,0.00,weatherlink.com 1.10,2013-07-03 03:34:00,
2013-07-02 22:49:00,63.7,58.0,30.02,SSE,165,1.0,2.0,82,0.00,,,0.00,weatherlink.com 1.10,2013-07-03 03:49:00,
2013-07-02 23:04:00,63.3,58.0,30.01,SSE,166,1.0,3.0,83,0.00,,,0.00,weatherlink.com 1.10,2013-07-03 04:04:00,
2013-07-02 23:19:00,62.8,58.0,30.01,SSE,166,1.0,4.0,84,0.00,,,0.00,weatherlink.com 1.10,2013-07-03 04:19:00,
2013-07-02 23:34:00,62.7,58.0,30.02,South,178,1.0,2.0,84,0.00,,,0.00,weatherlink.com 1.10,2013-07-03 04:34:00,
2013-07-02 23:49:00,62.4,58.0,30.02,South,178,1.0,3.0,85,0.00,,,0.00,weatherlink.com 1.10,2013-07-03 04:49:00,